createdAt,value
2023-01-11T00:00:52.244Z,9.302974
2023-01-11T00:01:52.257Z,9.302866
2023-01-11T00:02:52.224Z,9.302928
2023-01-11T00:03:52.170Z,9.302979
2023-01-11T00:04:52.231Z,9.303077
2023-01-11T00:05:52.225Z,9.303041
2023-01-11T00:06:52.783Z,9.303014
2023-01-11T00:07:52.168Z,9.302981
2023-01-11T00:08:52.167Z,9.302856
2023-01-11T00:09:52.125Z,9.302929
2023-01-11T00:10:52.145Z,9.303155
2023-01-11T00:11:52.893Z,9.303169
2023-01-11T00:12:52.131Z,9.303187
2023-01-11T00:13:52.123Z,9.303013
2023-01-11T00:14:52.163Z,9.302938
2023-01-11T00:15:52.203Z,9.302832
2023-01-11T00:16:52.110Z,9.302890
2023-01-11T00:17:52.057Z,9.302609
2023-01-11T00:18:52.126Z,9.302644
2023-01-11T00:19:52.080Z,9.302677
2023-01-11T00:20:52.082Z,9.302764
2023-01-11T00:21:52.023Z,9.302843
2023-01-11T00:22:52.206Z,9.302863
2023-01-11T00:23:51.987Z,9.303015
2023-01-11T00:24:52.009Z,9.302961
2023-01-11T00:25:51.968Z,9.302767
2023-01-11T00:26:52.039Z,9.302801
2023-01-11T00:27:52.900Z,9.302905
2023-01-11T00:28:51.975Z,9.302982
2023-01-11T00:29:51.970Z,9.302982
2023-01-11T00:30:51.991Z,9.303123
2023-01-11T00:31:51.914Z,9.302873
2023-01-11T00:32:51.890Z,9.303245
2023-01-11T00:33:51.963Z,9.303031
2023-01-11T00:34:51.925Z,9.302930
2023-01-11T00:35:51.870Z,9.303056
2023-01-11T00:36:51.930Z,9.303030
2023-01-11T00:37:51.918Z,9.302938
2023-01-11T00:38:51.940Z,9.303040
2023-01-11T00:39:51.832Z,9.302905
2023-01-11T00:40:51.853Z,9.302907
2023-01-11T00:41:51.817Z,9.302506
2023-01-11T00:42:51.946Z,9.302510
2023-01-11T00:43:52.761Z,9.302711
2023-01-11T00:44:51.771Z,9.302650
2023-01-11T00:45:51.846Z,9.302731
2023-01-11T00:46:51.797Z,9.302846
2023-01-11T00:47:51.806Z,9.302776
2023-01-11T00:48:51.845Z,9.302752
2023-01-11T00:49:51.753Z,9.302929
2023-01-11T00:50:51.753Z,9.302886
2023-01-11T00:51:51.758Z,9.302821
2023-01-11T00:52:51.789Z,9.302936
2023-01-11T00:53:51.718Z,9.302839
2023-01-11T00:54:51.741Z,9.302794
2023-01-11T00:55:51.727Z,9.302834
2023-01-11T00:56:51.700Z,9.302909
2023-01-11T00:57:51.695Z,9.302967
2023-01-11T00:58:51.697Z,9.303022
2023-01-11T00:59:52.226Z,9.302980
2023-01-11T01:00:51.657Z,9.302896
2023-01-11T01:01:51.672Z,9.302907
2023-01-11T01:02:51.649Z,9.302919
2023-01-11T01:03:51.599Z,9.302917
2023-01-11T01:04:51.599Z,9.302869
2023-01-11T01:05:51.586Z,9.302913
2023-01-11T01:06:51.630Z,9.302933
2023-01-11T01:07:51.632Z,9.302827
2023-01-11T01:08:51.599Z,9.302863
2023-01-11T01:09:51.577Z,9.302882
2023-01-11T01:10:51.558Z,9.302957
2023-01-11T01:11:51.623Z,9.302913
2023-01-11T01:12:51.544Z,9.302801
2023-01-11T01:13:51.565Z,9.302907
2023-01-11T01:14:51.579Z,9.302921
2023-01-11T01:15:51.594Z,9.302909
2023-01-11T01:16:51.478Z,9.302908
2023-01-11T01:17:51.531Z,9.302927
2023-01-11T01:18:51.564Z,9.303012
2023-01-11T01:19:51.463Z,9.302894
2023-01-11T01:20:51.635Z,9.302936
2023-01-11T01:21:51.488Z,9.303006
2023-01-11T01:22:51.478Z,9.302895
2023-01-11T01:23:51.429Z,9.302997
2023-01-11T01:24:51.374Z,9.302876
2023-01-11T01:25:51.466Z,9.302842
2023-01-11T01:26:51.390Z,9.302945
2023-01-11T01:27:51.397Z,9.302925
2023-01-11T01:28:51.417Z,9.302765
2023-01-11T01:29:51.318Z,9.302730
2023-01-11T01:30:51.406Z,9.302722
2023-01-11T01:31:51.345Z,9.302671
2023-01-11T01:32:51.914Z,9.302798
2023-01-11T01:33:51.333Z,9.302990
2023-01-11T01:34:51.331Z,9.303024
2023-01-11T01:35:51.286Z,9.302994
2023-01-11T01:36:51.336Z,9.302937
2023-01-11T01:37:51.253Z,9.302888
2023-01-11T01:38:51.309Z,9.302956
2023-01-11T01:39:51.339Z,9.302990
2023-01-11T01:40:51.232Z,9.302920
2023-01-11T01:41:51.265Z,9.303029
2023-01-11T01:42:51.266Z,9.302775
2023-01-11T01:43:51.282Z,9.302836
2023-01-11T01:44:51.287Z,9.302820
2023-01-11T01:45:51.228Z,9.302840
2023-01-11T01:46:51.212Z,9.302877
2023-01-11T01:47:51.251Z,9.302827
2023-01-11T01:48:51.951Z,9.302960
2023-01-11T01:49:51.148Z,9.303047
2023-01-11T01:50:51.150Z,9.303024
2023-01-11T01:51:51.145Z,9.303026
2023-01-11T01:52:51.204Z,9.302985
2023-01-11T01:53:51.117Z,9.302812
2023-01-11T01:54:51.159Z,9.302914
2023-01-11T01:55:51.096Z,9.302950
2023-01-11T01:56:51.143Z,9.303125
2023-01-11T01:57:51.177Z,9.303115
2023-01-11T01:58:51.072Z,9.302937
2023-01-11T01:59:51.110Z,9.303005
2023-01-11T02:00:51.067Z,9.302914
2023-01-11T02:01:51.131Z,9.303057
2023-01-11T02:02:51.238Z,9.302999
2023-01-11T02:03:51.042Z,9.302997
2023-01-11T02:04:51.072Z,9.302559
2023-01-11T02:05:51.037Z,9.302669
2023-01-11T02:06:51.025Z,9.302689
2023-01-11T02:07:51.157Z,9.302539
2023-01-11T02:08:50.987Z,9.302784
2023-01-11T02:09:51.886Z,9.302820
2023-01-11T02:10:50.964Z,9.302894
2023-01-11T02:11:51.041Z,9.302968
2023-01-11T02:12:50.975Z,9.303068
2023-01-11T02:13:50.996Z,9.303006
2023-01-11T02:14:50.989Z,9.303051
2023-01-11T02:15:50.948Z,9.303053
2023-01-11T02:16:50.947Z,9.303050
2023-01-11T02:17:50.968Z,9.302939
2023-01-11T02:18:51.818Z,9.302958
2023-01-11T02:19:50.866Z,9.302942
2023-01-11T02:20:50.925Z,9.303122
2023-01-11T02:21:50.881Z,9.303059
2023-01-11T02:22:50.952Z,9.303074
2023-01-11T02:23:50.808Z,9.303006
2023-01-11T02:24:50.833Z,9.303048
2023-01-11T02:25:50.837Z,9.303103
2023-01-11T02:26:50.848Z,9.302945
2023-01-11T02:27:51.710Z,9.303086
2023-01-11T02:28:50.769Z,9.303000
2023-01-11T02:29:50.791Z,9.303031
2023-01-11T02:30:50.875Z,9.303079
2023-01-11T02:31:50.720Z,9.303000
2023-01-11T02:32:50.753Z,9.303140
2023-01-11T02:33:50.738Z,9.303054
2023-01-11T02:34:50.779Z,9.303119
2023-01-11T02:35:50.731Z,9.302982
2023-01-11T02:36:51.207Z,9.302923
2023-01-11T02:37:50.753Z,9.303040
2023-01-11T02:38:50.712Z,9.303153
2023-01-11T02:39:50.819Z,9.303163
2023-01-11T02:40:50.709Z,9.303046
2023-01-11T02:41:50.680Z,9.302979
2023-01-11T02:42:50.696Z,9.302957
2023-01-11T02:43:50.716Z,9.303105
2023-01-11T02:44:50.592Z,9.303114
2023-01-11T02:45:50.594Z,9.303046
2023-01-11T02:46:50.727Z,9.303003
2023-01-11T02:47:50.722Z,9.303005
2023-01-11T02:48:50.623Z,9.303058
2023-01-11T02:49:50.570Z,9.303003
2023-01-11T02:50:51.276Z,9.303019
2023-01-11T02:51:50.598Z,9.302969
2023-01-11T02:52:50.650Z,9.302922
2023-01-11T02:53:50.543Z,9.302893
2023-01-11T02:54:50.547Z,9.302892
2023-01-11T02:55:51.381Z,9.302991
2023-01-11T02:56:50.547Z,9.303218
2023-01-11T02:57:50.492Z,9.303132
2023-01-11T02:58:50.485Z,9.303211
2023-01-11T02:59:50.523Z,9.303064
2023-01-11T03:00:50.451Z,9.303014
2023-01-11T03:01:50.533Z,9.302937
2023-01-11T03:02:51.920Z,9.303102
2023-01-11T03:03:50.419Z,9.303128
2023-01-11T03:04:50.574Z,9.303147
2023-01-11T03:05:50.424Z,9.303089
2023-01-11T03:06:50.468Z,9.303068
2023-01-11T03:07:50.410Z,9.303022
2023-01-11T03:08:50.406Z,9.303068
2023-01-11T03:09:50.443Z,9.303091
2023-01-11T03:10:50.560Z,9.303089
2023-01-11T03:11:51.197Z,9.303135
2023-01-11T03:12:50.340Z,9.303095
2023-01-11T03:13:50.377Z,9.303169
2023-01-11T03:14:50.337Z,9.303124
2023-01-11T03:15:50.388Z,9.303180
2023-01-11T03:16:50.942Z,9.303178
2023-01-11T03:17:50.320Z,9.303252
2023-01-11T03:18:50.311Z,9.303205
2023-01-11T03:19:50.261Z,9.303084
2023-01-11T03:20:50.329Z,9.303044
2023-01-11T03:21:50.346Z,9.303049
2023-01-11T03:22:50.329Z,9.303111
2023-01-11T03:23:50.253Z,9.303148
2023-01-11T03:24:50.324Z,9.303125
2023-01-11T03:25:50.248Z,9.303031
2023-01-11T03:26:50.270Z,9.303043
2023-01-11T03:27:50.291Z,9.303143
2023-01-11T03:28:50.206Z,9.303111
2023-01-11T03:29:50.251Z,9.303094
2023-01-11T03:30:50.146Z,9.303277
2023-01-11T03:31:50.181Z,9.303272
2023-01-11T03:32:50.426Z,9.303269
2023-01-11T03:33:50.328Z,9.303153
2023-01-11T03:34:50.141Z,9.303143
2023-01-11T03:35:50.115Z,9.302948
2023-01-11T03:36:50.129Z,9.302947
2023-01-11T03:37:50.173Z,9.303048
2023-01-11T03:38:50.130Z,9.303040
2023-01-11T03:39:50.884Z,9.303039
2023-01-11T03:40:50.173Z,9.302992
2023-01-11T03:41:50.248Z,9.302944
2023-01-11T03:42:50.117Z,9.303083
2023-01-11T03:43:50.103Z,9.303004
2023-01-11T03:44:50.113Z,9.303037
2023-01-11T03:45:49.994Z,9.302975
2023-01-11T03:46:50.113Z,9.302990
2023-01-11T03:47:50.050Z,9.303043
2023-01-11T03:48:50.007Z,9.303040
2023-01-11T03:49:50.047Z,9.302954
2023-01-11T03:50:50.037Z,9.302956
2023-01-11T03:51:49.997Z,9.303002
2023-01-11T03:52:49.999Z,9.303097
2023-01-11T03:53:50.058Z,9.303087
2023-01-11T03:54:50.026Z,9.303119
2023-01-11T03:55:50.012Z,9.303121
2023-01-11T03:56:49.961Z,9.303152
2023-01-11T03:57:49.929Z,9.303181
2023-01-11T03:58:49.927Z,9.303034
2023-01-11T03:59:49.914Z,9.302917
2023-01-11T04:00:49.934Z,9.302974
2023-01-11T04:01:49.870Z,9.303071
2023-01-11T04:02:49.890Z,9.303140
2023-01-11T04:03:49.956Z,9.303087
2023-01-11T04:04:49.875Z,9.303167
2023-01-11T04:05:49.868Z,9.303160
2023-01-11T04:06:49.978Z,9.303246
2023-01-11T04:07:49.855Z,9.303184
2023-01-11T04:08:49.907Z,9.303048
2023-01-11T04:09:49.781Z,9.303025
2023-01-11T04:10:49.789Z,9.302988
2023-01-11T04:11:49.782Z,9.303034
2023-01-11T04:12:49.857Z,9.303059
2023-01-11T04:13:49.798Z,9.303081
2023-01-11T04:14:49.723Z,9.302947
2023-01-11T04:15:49.793Z,9.303090
2023-01-11T04:16:49.768Z,9.303230
2023-01-11T04:17:49.812Z,9.303079
2023-01-11T04:18:49.764Z,9.303027
2023-01-11T04:19:49.694Z,9.303084
2023-01-11T04:20:49.702Z,9.303015
2023-01-11T04:21:49.700Z,9.303004
2023-01-11T04:22:49.682Z,9.303153
2023-01-11T04:23:49.694Z,9.303420
2023-01-11T04:24:49.701Z,9.303150
2023-01-11T04:25:49.647Z,9.302943
2023-01-11T04:26:49.587Z,9.302855
2023-01-11T04:27:49.643Z,9.302967
2023-01-11T04:28:49.690Z,9.302976
2023-01-11T04:29:49.672Z,9.302940
2023-01-11T04:30:49.602Z,9.303006
2023-01-11T04:31:49.791Z,9.303080
2023-01-11T04:32:49.684Z,9.303067
2023-01-11T04:33:49.630Z,9.303074
2023-01-11T04:34:49.546Z,9.303006
2023-01-11T04:35:49.614Z,9.302884
2023-01-11T04:36:49.488Z,9.302989
2023-01-11T04:37:49.793Z,9.302972
2023-01-11T04:38:49.503Z,9.302985
2023-01-11T04:39:49.551Z,9.303009
2023-01-11T04:40:49.577Z,9.302867
2023-01-11T04:41:49.527Z,9.302739
2023-01-11T04:42:49.531Z,9.302876
2023-01-11T04:43:49.517Z,9.302914
2023-01-11T04:44:49.548Z,9.302823
2023-01-11T04:45:49.513Z,9.302829
2023-01-11T04:46:50.320Z,9.302615
2023-01-11T04:47:49.409Z,9.302690
2023-01-11T04:48:49.474Z,9.302805
2023-01-11T04:49:49.509Z,9.302835
2023-01-11T04:50:49.438Z,9.302711
2023-01-11T04:51:49.403Z,9.302784
2023-01-11T04:52:49.395Z,9.302817
2023-01-11T04:53:49.404Z,9.302752
2023-01-11T04:54:49.343Z,9.302789
2023-01-11T04:55:49.617Z,9.302830
2023-01-11T04:56:49.343Z,9.302810
2023-01-11T04:57:49.369Z,9.302989
2023-01-11T04:58:49.337Z,9.302992
2023-01-11T04:59:49.332Z,9.302942
2023-01-11T05:00:49.394Z,9.302974
2023-01-11T05:01:49.330Z,9.302885
2023-01-11T05:02:49.365Z,9.302836
2023-01-11T05:03:49.311Z,9.302902
2023-01-11T05:04:49.281Z,9.303007
2023-01-11T05:05:49.221Z,9.302965
2023-01-11T05:06:49.322Z,9.302896
2023-01-11T05:07:49.876Z,9.302957
2023-01-11T05:08:49.223Z,9.302965
2023-01-11T05:09:49.980Z,9.302767
2023-01-11T05:10:49.191Z,9.302874
2023-01-11T05:11:49.287Z,9.302841
2023-01-11T05:12:49.160Z,9.302884
2023-01-11T05:13:49.249Z,9.302805
2023-01-11T05:14:49.182Z,9.302956
2023-01-11T05:15:49.223Z,9.302925
2023-01-11T05:16:49.247Z,9.302883
2023-01-11T05:17:49.177Z,9.302846
2023-01-11T05:18:49.206Z,9.302846
2023-01-11T05:19:49.140Z,9.302726
2023-01-11T05:20:49.111Z,9.302778
2023-01-11T05:21:49.090Z,9.302720
2023-01-11T05:22:49.148Z,9.302853
2023-01-11T05:23:49.107Z,9.302972
2023-01-11T05:24:49.055Z,9.303059
2023-01-11T05:25:49.095Z,9.303019
2023-01-11T05:26:49.075Z,9.302988
2023-01-11T05:27:49.041Z,9.302954
2023-01-11T05:28:49.052Z,9.302830
2023-01-11T05:29:49.023Z,9.302970
2023-01-11T05:30:49.834Z,9.303003
2023-01-11T05:31:49.061Z,9.302980
2023-01-11T05:32:49.006Z,9.302990
2023-01-11T05:33:49.002Z,9.302937
2023-01-11T05:34:48.961Z,9.302967
2023-01-11T05:35:48.952Z,9.302974
2023-01-11T05:36:49.001Z,9.303097
2023-01-11T05:37:48.954Z,9.302977
2023-01-11T05:38:48.959Z,9.302933
2023-01-11T05:39:49.106Z,9.303012
2023-01-11T05:40:48.902Z,9.302997
2023-01-11T05:41:49.025Z,9.303041
2023-01-11T05:42:48.962Z,9.303014
2023-01-11T05:43:48.884Z,9.303025
2023-01-11T05:44:48.928Z,9.303078
2023-01-11T05:45:48.865Z,9.303030
2023-01-11T05:46:48.925Z,9.303031
2023-01-11T05:47:48.882Z,9.303060
2023-01-11T05:48:49.061Z,9.303036
2023-01-11T05:49:48.851Z,9.302950
2023-01-11T05:50:48.767Z,9.303049
2023-01-11T05:51:48.841Z,9.303035
2023-01-11T05:52:48.788Z,9.302946
2023-01-11T05:53:48.802Z,9.303087
2023-01-11T05:54:48.799Z,9.303151
2023-01-11T05:55:48.902Z,9.303069
2023-01-11T05:56:48.750Z,9.302792
2023-01-11T05:57:48.777Z,9.302716
2023-01-11T05:58:48.897Z,9.302896
2023-01-11T05:59:48.756Z,9.302985
2023-01-11T06:00:48.727Z,9.303096
2023-01-11T06:01:48.772Z,9.303062
2023-01-11T06:02:48.819Z,9.303085
2023-01-11T06:03:48.728Z,9.302964
2023-01-11T06:04:48.660Z,9.303045
2023-01-11T06:05:48.670Z,9.303131
2023-01-11T06:06:48.682Z,9.303060
2023-01-11T06:07:48.699Z,9.303105
2023-01-11T06:08:48.636Z,9.303033
2023-01-11T06:09:48.629Z,9.303005
2023-01-11T06:10:48.627Z,9.303216
2023-01-11T06:11:48.599Z,9.303207
2023-01-11T06:12:48.584Z,9.303150
2023-01-11T06:13:48.631Z,9.303104
2023-01-11T06:14:48.653Z,9.303063
2023-01-11T06:15:48.537Z,9.302992
2023-01-11T06:16:48.633Z,9.303041
2023-01-11T06:17:48.546Z,9.303127
2023-01-11T06:18:48.528Z,9.303080
2023-01-11T06:36:21.659Z,9.303012
2023-01-11T06:37:21.575Z,9.303077
2023-01-11T06:38:21.653Z,9.303127
2023-01-11T06:39:21.572Z,9.303000
2023-01-11T06:40:21.539Z,9.303090
2023-01-11T06:41:21.592Z,9.303056
2023-01-11T06:42:21.711Z,9.303146
2023-01-11T06:43:21.546Z,9.302979
2023-01-11T06:44:21.607Z,9.302982
2023-01-11T06:45:21.492Z,9.302852
2023-01-11T06:46:21.530Z,9.302871
2023-01-11T06:47:21.535Z,9.302788
2023-01-11T06:48:21.440Z,9.302712
2023-01-11T06:49:21.524Z,9.302787
2023-01-11T06:50:21.457Z,9.302876
2023-01-11T06:51:21.441Z,9.302996
2023-01-11T06:52:21.462Z,9.302946
2023-01-11T06:53:21.425Z,9.302952
2023-01-11T06:54:22.121Z,9.302942
2023-01-11T06:55:21.425Z,9.302945
2023-01-11T06:56:21.513Z,9.302966
2023-01-11T06:57:21.390Z,9.302964
2023-01-11T06:58:21.402Z,9.303017
2023-01-11T06:59:21.405Z,9.303077
2023-01-11T07:00:21.361Z,9.303072
2023-01-11T07:01:21.395Z,9.303011
2023-01-11T07:02:21.326Z,9.303069
2023-01-11T07:03:21.315Z,9.303095
2023-01-11T07:04:21.422Z,9.303065
2023-01-11T07:05:21.443Z,9.303062
2023-01-11T07:06:21.374Z,9.303173
2023-01-11T07:07:21.272Z,9.303082
2023-01-11T07:08:21.333Z,9.303075
2023-01-11T07:09:21.247Z,9.303155
2023-01-11T07:10:21.235Z,9.303164
2023-01-11T07:11:21.238Z,9.303135
2023-01-11T07:12:21.240Z,9.303071
2023-01-11T07:13:21.189Z,9.303073
2023-01-11T07:14:21.279Z,9.303093
2023-01-11T07:15:21.245Z,9.303050
2023-01-11T07:16:21.217Z,9.303121
2023-01-11T07:17:21.212Z,9.303025
2023-01-11T07:18:21.162Z,9.303115
2023-01-11T07:19:21.148Z,9.303090
2023-01-11T07:20:21.139Z,9.303039
2023-01-11T07:21:21.104Z,9.303099
2023-01-11T07:22:21.111Z,9.303137
2023-01-11T07:23:21.078Z,9.303101
2023-01-11T07:24:21.209Z,9.302979
2023-01-11T07:25:21.108Z,9.302938
2023-01-11T07:26:21.110Z,9.302937
2023-01-11T07:27:21.078Z,9.302939
2023-01-11T07:28:21.068Z,9.302981
2023-01-11T07:29:21.054Z,9.302815
2023-01-11T07:30:21.034Z,9.302758
2023-01-11T07:31:21.041Z,9.302922
2023-01-11T07:32:21.022Z,9.302890
2023-01-11T07:33:21.015Z,9.302971
2023-01-11T07:34:20.988Z,9.302995
2023-01-11T07:35:21.024Z,9.302878
2023-01-11T07:36:20.936Z,9.302901
2023-01-11T07:37:29.349Z,9.303094
2023-01-11T07:38:21.954Z,9.303024
2023-01-11T07:39:24.870Z,9.303069
2023-01-11T07:40:21.965Z,9.303215
2023-01-11T07:41:20.923Z,9.303123
2023-01-11T07:42:20.988Z,9.303110
2023-01-11T07:43:20.911Z,9.303017
2023-01-11T07:44:20.948Z,9.302975
2023-01-11T07:45:20.986Z,9.302853
2023-01-11T07:46:20.985Z,9.303005
2023-01-11T07:47:20.867Z,9.303059
2023-01-11T07:48:21.010Z,9.303122
2023-01-11T07:49:20.915Z,9.303194
2023-01-11T07:50:20.816Z,9.303124
2023-01-11T07:51:21.100Z,9.303155
2023-01-11T07:52:20.804Z,9.303212
2023-01-11T07:53:20.809Z,9.303015
2023-01-11T07:54:20.869Z,9.302954
2023-01-11T07:55:20.798Z,9.302948
2023-01-11T07:56:22.920Z,9.302889
2023-01-11T07:57:20.830Z,9.302935
2023-01-11T07:58:20.896Z,9.302971
2023-01-11T07:59:20.759Z,9.303026
2023-01-11T08:00:20.722Z,9.303133
2023-01-11T08:01:20.740Z,9.303104
2023-01-11T08:02:20.731Z,9.303052
2023-01-11T08:03:20.962Z,9.302980
2023-01-11T08:04:20.726Z,9.303087
2023-01-11T08:05:20.695Z,9.303288
2023-01-11T08:06:20.654Z,9.303193
2023-01-11T08:07:20.680Z,9.303116
2023-01-11T08:08:20.658Z,9.303033
2023-01-11T08:09:20.711Z,9.303007
2023-01-11T08:10:20.616Z,9.303100
2023-01-11T08:11:20.624Z,9.303070
2023-01-11T08:12:21.245Z,9.303040
2023-01-11T08:13:20.598Z,9.302940
2023-01-11T08:14:20.657Z,9.302992
2023-01-11T08:15:23.481Z,9.303026
2023-01-11T08:16:20.600Z,9.303057
2023-01-11T08:17:20.578Z,9.303040
2023-01-11T08:18:20.565Z,9.303064
2023-01-11T08:19:20.591Z,9.303091
2023-01-11T08:20:20.566Z,9.302892
2023-01-11T08:21:20.696Z,9.302949
2023-01-11T08:22:20.503Z,9.302996
2023-01-11T08:23:20.551Z,9.302990
2023-01-11T08:24:20.531Z,9.303009
2023-01-11T08:25:20.474Z,9.303026
2023-01-11T08:26:20.462Z,9.303008
2023-01-11T08:27:20.462Z,9.303023
2023-01-11T08:28:21.554Z,9.303067
2023-01-11T08:29:20.442Z,9.303042
2023-01-11T08:30:20.413Z,9.302973
2023-01-11T08:31:20.453Z,9.302983
2023-01-11T08:32:20.385Z,9.303062
2023-01-11T08:33:20.473Z,9.302925
2023-01-11T08:34:20.371Z,9.303012
2023-01-11T08:35:20.382Z,9.303035
2023-01-11T08:36:20.345Z,9.303093
2023-01-11T08:37:20.356Z,9.303006
2023-01-11T08:38:20.341Z,9.303073
2023-01-11T08:39:20.367Z,9.302886
2023-01-11T08:40:23.604Z,9.302938
2023-01-11T08:41:20.338Z,9.302931
2023-01-11T08:42:20.297Z,9.302944
2023-01-11T08:43:20.306Z,9.302913
2023-01-11T08:44:33.271Z,9.303061
2023-01-11T08:45:21.283Z,9.303089
2023-01-11T08:46:20.336Z,9.303026
2023-01-11T08:47:20.252Z,9.302814
2023-01-11T08:48:20.241Z,9.302859
2023-01-11T08:49:21.181Z,9.302811
2023-01-11T08:50:20.415Z,9.302986
2023-01-11T08:51:20.270Z,9.303028
2023-01-11T08:52:20.213Z,9.303072
2023-01-11T08:53:20.248Z,9.303144
2023-01-11T08:54:20.186Z,9.303065
2023-01-11T08:55:20.234Z,9.303090
2023-01-11T08:56:20.180Z,9.303145
2023-01-11T08:57:20.157Z,9.303113
2023-01-11T08:58:21.541Z,9.303170
2023-01-11T08:59:21.120Z,9.303164
2023-01-11T09:00:20.149Z,9.303119
2023-01-11T09:01:20.181Z,9.303092
2023-01-11T09:02:20.118Z,9.303064
2023-01-11T09:03:20.198Z,9.303098
2023-01-11T09:04:25.208Z,9.303085
2023-01-11T09:05:22.108Z,9.303138
2023-01-11T09:06:20.123Z,9.303061
2023-01-11T09:07:20.081Z,9.303139
2023-01-11T09:08:20.054Z,9.303133
2023-01-11T09:09:20.069Z,9.303163
2023-01-11T09:10:20.073Z,9.303132
2023-01-11T09:11:20.054Z,9.303178
2023-01-11T09:12:21.112Z,9.303094
2023-01-11T09:13:20.014Z,9.303110
2023-01-11T09:14:20.008Z,9.303226
2023-01-11T09:15:19.998Z,9.303108
2023-01-11T09:16:20.045Z,9.303108
2023-01-11T09:17:19.964Z,9.303057
2023-01-11T09:18:19.965Z,9.303012
2023-01-11T09:19:20.637Z,9.303048
2023-01-11T09:20:19.965Z,9.303013
2023-01-11T09:21:19.875Z,9.303079
2023-01-11T09:22:19.900Z,9.303065
2023-01-11T09:23:19.910Z,9.303153
2023-01-11T09:24:19.932Z,9.303055
2023-01-11T09:25:19.910Z,9.303138
2023-01-11T09:26:19.850Z,9.303087
2023-01-11T09:27:19.864Z,9.303010
2023-01-11T09:28:19.853Z,9.303050
2023-01-11T09:29:19.905Z,9.303011
2023-01-11T09:30:19.888Z,9.303082
2023-01-11T09:31:19.868Z,9.303054
2023-01-11T09:32:19.820Z,9.303028
2023-01-11T09:33:19.866Z,9.303064
2023-01-11T09:34:19.781Z,9.303035
2023-01-11T09:35:19.781Z,9.303032
2023-01-11T09:36:19.766Z,9.303005
2023-01-11T09:37:19.725Z,9.302949
2023-01-11T09:38:19.739Z,9.302959
2023-01-11T09:39:19.729Z,9.303241
2023-01-11T09:40:19.833Z,9.303053
2023-01-11T09:41:19.712Z,9.303087
2023-01-11T09:42:20.742Z,9.302954
2023-01-11T09:43:19.702Z,9.303118
2023-01-11T09:44:19.712Z,9.303041
2023-01-11T09:45:19.686Z,9.302917
2023-01-11T09:46:19.674Z,9.302870
2023-01-11T09:47:19.658Z,9.302904
2023-01-11T09:48:19.636Z,9.303052
2023-01-11T09:49:19.660Z,9.303161
2023-01-11T09:50:19.644Z,9.303141
2023-01-11T09:51:19.673Z,9.303272
2023-01-11T09:52:19.673Z,9.303182
2023-01-11T09:53:19.579Z,9.303153
2023-01-11T09:54:19.630Z,9.302971
2023-01-11T09:55:19.569Z,9.302948
2023-01-11T09:56:19.564Z,9.302992
2023-01-11T09:57:19.599Z,9.303005
2023-01-11T09:58:22.169Z,9.303075
2023-01-11T09:59:19.535Z,9.302958
2023-01-11T10:00:19.600Z,9.302939
2023-01-11T10:01:19.619Z,9.302936
2023-01-11T10:02:19.540Z,9.302752
2023-01-11T10:03:19.495Z,9.302827
2023-01-11T10:04:19.500Z,9.302893
2023-01-11T10:05:19.587Z,9.302735
2023-01-11T10:06:21.222Z,9.302883
2023-01-11T10:07:19.500Z,9.303080
2023-01-11T10:18:25.676Z,9.303217
2023-01-11T10:18:28.979Z,9.303094
2023-01-11T10:18:31.574Z,9.302977
2023-01-11T10:18:32.543Z,9.302907
2023-01-11T10:18:34.255Z,9.303119
2023-01-11T10:19:40.366Z,9.303061
2023-01-11T10:20:21.594Z,9.302917
2023-01-11T10:21:19.355Z,9.302954
2023-01-11T10:22:19.303Z,9.303009
2023-01-11T10:23:19.359Z,9.302967
2023-01-11T10:24:19.366Z,9.302948
2023-01-11T10:33:45.367Z,9.303060
2023-01-11T10:34:45.980Z,9.303166
2023-01-11T10:35:45.266Z,9.303234
2023-01-11T10:36:45.230Z,9.303046
2023-01-11T10:37:45.267Z,9.302918
2023-01-11T10:38:45.235Z,9.302949
2023-01-11T10:39:45.228Z,9.302970
2023-01-11T10:40:45.174Z,9.303111
2023-01-11T10:41:45.192Z,9.303112
2023-01-11T10:42:45.195Z,9.303020
2023-01-11T10:43:45.145Z,9.303076
2023-01-11T10:44:45.328Z,9.303137
2023-01-11T10:45:45.159Z,9.303092
2023-01-11T10:46:46.089Z,9.302962
2023-01-11T10:47:45.113Z,9.303058
2023-01-11T10:48:45.228Z,9.303144
2023-01-11T10:49:45.157Z,9.302912
2023-01-11T10:50:45.258Z,9.302949
2023-01-11T10:51:45.110Z,9.303027
2023-01-11T10:52:45.067Z,9.302929
2023-01-11T10:53:45.142Z,9.303057
2023-01-11T10:54:46.528Z,9.302999
2023-01-11T10:55:47.048Z,9.302973
2023-01-11T10:57:03.241Z,9.303069
2023-01-11T10:58:00.152Z,9.302976
2023-01-11T10:58:46.042Z,9.303082
2023-01-11T10:59:45.005Z,9.303123
2023-01-11T11:00:46.663Z,9.303049
2023-01-11T11:01:44.991Z,9.303061
2023-01-11T11:02:44.991Z,9.303057
2023-01-11T11:03:44.942Z,9.303109
2023-01-11T11:04:44.976Z,9.303141
2023-01-11T11:05:44.956Z,9.303188
2023-01-11T11:06:44.927Z,9.303097
2023-01-11T11:07:45.584Z,9.303028
2023-01-11T11:08:44.886Z,9.303008
2023-01-11T11:09:44.906Z,9.303007
2023-01-11T11:10:44.910Z,9.303120
2023-01-11T11:11:44.901Z,9.302990
2023-01-11T11:12:44.858Z,9.303021
2023-01-11T11:13:44.858Z,9.302939
2023-01-11T11:14:44.861Z,9.303104
2023-01-11T11:15:44.886Z,9.303039
2023-01-11T11:16:44.882Z,9.303036
2023-01-11T11:17:44.823Z,9.303122
2023-01-11T11:18:44.831Z,9.303181
2023-01-11T11:19:44.812Z,9.303141
2023-01-11T11:20:44.815Z,9.303158
2023-01-11T11:21:45.609Z,9.303114
2023-01-11T11:22:44.737Z,9.303119
2023-01-11T11:23:44.797Z,9.303101
2023-01-11T11:24:44.746Z,9.303123
2023-01-11T11:25:44.779Z,9.303099
2023-01-11T11:26:44.776Z,9.303066
2023-01-11T11:27:44.708Z,9.303030
2023-01-11T11:28:44.851Z,9.303064
2023-01-11T11:29:44.716Z,9.302975
2023-01-11T11:30:46.668Z,9.302990
2023-01-11T11:31:44.722Z,9.303012
2023-01-11T11:32:44.776Z,9.303121
2023-01-11T11:33:44.662Z,9.303046
2023-01-11T11:34:44.665Z,9.303082
2023-01-11T11:35:44.677Z,9.303026
2023-01-11T11:36:44.640Z,9.303043
2023-01-11T11:37:44.859Z,9.303002
2023-01-11T11:38:44.627Z,9.303139
2023-01-11T11:39:44.657Z,9.303223
2023-01-11T11:40:44.589Z,9.303173
2023-01-11T11:41:44.598Z,9.303083
2023-01-11T11:42:44.604Z,9.303086
2023-01-11T11:43:44.559Z,9.303076
2023-01-11T11:44:45.604Z,9.303152
2023-01-11T11:45:44.552Z,9.303184
2023-01-11T11:46:44.538Z,9.303121
2023-01-11T11:47:44.553Z,9.303090
2023-01-11T11:48:44.518Z,9.303047
2023-01-11T11:49:44.520Z,9.303127
2023-01-11T11:50:45.753Z,9.303192
2023-01-11T11:51:45.526Z,9.303138
2023-01-11T11:52:44.555Z,9.303085
2023-01-11T11:53:44.464Z,9.303077
2023-01-11T11:54:44.462Z,9.303028
2023-01-11T11:55:44.455Z,9.303012
2023-01-11T11:56:44.453Z,9.303073
2023-01-11T11:57:44.462Z,9.303079
2023-01-11T11:58:44.430Z,9.303142
2023-01-11T11:59:44.413Z,9.303049
2023-01-11T12:00:44.496Z,9.303212
2023-01-11T12:01:44.397Z,9.303138
2023-01-11T12:02:44.377Z,9.303139
2023-01-11T12:03:44.349Z,9.303152
2023-01-11T12:04:44.407Z,9.303232
2023-01-11T12:05:44.373Z,9.303267
2023-01-11T12:06:44.325Z,9.303242
2023-01-11T12:07:54.420Z,9.303187
2023-01-11T12:08:46.341Z,9.303152
2023-01-11T12:09:44.345Z,9.303063
2023-01-11T12:21:10.846Z,9.303221
2023-01-11T12:22:10.829Z,9.303183
2023-01-11T12:23:10.724Z,9.303049
2023-01-11T12:24:10.702Z,9.303061
2023-01-11T12:25:10.694Z,9.303169
2023-01-11T12:26:10.625Z,9.303144